Accueil
METAR-TAF:

METAR-TAF

Aéroports :

Aéroport international d'Irkoutsk

Irkoutsk, Russie

latitude: 52-16N, longitude: 104-19E, altitude: 513 m

Observation

Le bulletin a été fait il y a 48 minutes, à 23:30 UTC
Vent 12 kt de ouest/nord-ouest
Température -16°C
Humidité 65%
Pression 1032 hPa
Visibilité 10 km ou plus
pas de nuages en-dessous de 1500 mètres et pas de cumulonimbus.

METAR: UIII 112330Z 30006MPS CAVOK M16/M21 Q1032 R30/820555 NOSIG RMK QFE729/0972

Heure: 08:18 (00:18 UTC)

Prévision

Le bulletin a été fait il y a 1 heure et 18 minutes, à 23:00 UTC
Prévision valable du 12 à 00 UTC au 12 à 24 UTC
Vent 10 kt de ouest/nord-ouest
Visibilité 10 km ou plus
Nuages épars à une hauteur de 2000 ft, Cumulonimbus.

TAF: UIII 112300Z 1200/1224 30005MPS 9999 SCT020CB

Observations et prévisions météorologiques de plus de 4000 aéroports (messages METAR et TAF).

Les stations disponibles sont représentées par des disques jaunes et rouges sur la carte.

Passer la souris dessus pour voir le nom de la station.

Cliquer dessus pour voir les observations et prévisions météorologiques.

Pour changer de carte: cliquez sur les boutons verts avec une croix noire pour zoomer, sur le bouton vert avec un tiret pour effectuer un zoom arrière, ou sur les flèches vertes pour les cartes adjacentes.


METAR-TAF: